BIRK/RKV METAR and TAF weather

Enter ICAO airport designator
Station Type Date Time Source
BIRK METAR 2019/12/13 14:00 UTC NOAA

BIRK 131400Z 04008KT 9999 SCT042 M05/M15 Q0986 R01/790152


Station Type Date Time Source
BIRK Decoded METAR 2019/12/13 14:00 UTC NOAA

Reykjavik, Iceland (BIRK) 64-08N 021-54W 61M
Dec 13, 2019 - 09:00 AM EST / 2019.12.13 1400 UTC
Wind: from the NE (040 degrees) at 9 MPH (8 KT):0
Visibility: greater than 7 mile(s):0
Sky conditions: partly cloudy
Temperature: 23 F (-5 C)
Windchill: 14 F (-10 C):1
Dew Point: 5 F (-15 C)
Relative Humidity: 45%
Pressure (altimeter): 29.12 in. Hg (0986 hPa)
ob: BIRK 131400Z 04008KT 9999 SCT042 M05/M15 Q0986 R01/790152
cycle: 14

Station Type Date Time Source
BIRK TAF 2019/12/13 15:39 UTC NOAA

TAF BIRK 131337Z 1315/1415 09008KT CAVOK TXM06/1318Z TNM12/1409Z

Example: see airport list